createdAt,value
2022-12-27T00:29:07.112Z,0
2022-12-27T00:29:47.651Z,0
2022-12-27T00:30:28.562Z,0
2022-12-27T00:35:12.064Z,0
2022-12-27T00:35:52.967Z,0
2022-12-27T00:36:33.474Z,0
2022-12-27T00:37:14.029Z,0
2022-12-27T00:37:54.483Z,0
2022-12-27T00:38:35.233Z,0
2022-12-27T00:39:15.814Z,0
2022-12-27T00:39:56.243Z,0
2022-12-27T00:40:36.768Z,0
2022-12-27T00:47:21.827Z,0
2022-12-27T00:48:02.349Z,0
2022-12-27T00:48:42.829Z,0
2022-12-27T00:49:23.322Z,0
2022-12-27T00:50:03.883Z,0
2022-12-27T00:50:44.354Z,0
2022-12-27T00:51:24.848Z,0
2022-12-27T00:52:05.364Z,0
2022-12-27T00:52:46.011Z,0
2022-12-27T00:53:26.570Z,0
2022-12-27T01:00:52.274Z,0
2022-12-27T01:01:32.861Z,0
2022-12-27T01:02:13.303Z,0
2022-12-27T01:02:53.853Z,0
2022-12-27T01:03:34.404Z,0
2022-12-27T01:04:14.866Z,0
2022-12-27T01:04:55.460Z,0
2022-12-27T01:05:35.977Z,0
2022-12-27T01:06:16.494Z,0
2022-12-27T01:13:42.031Z,0
2022-12-27T01:14:22.516Z,0
2022-12-27T01:15:03.010Z,0
2022-12-27T01:15:43.544Z,0
2022-12-27T01:16:24.063Z,0
2022-12-27T01:17:04.545Z,0
2022-12-27T01:17:45.063Z,0
2022-12-27T01:18:25.594Z,0
2022-12-27T01:19:06.168Z,0
2022-12-27T01:19:46.675Z,0
2022-12-27T01:25:01.936Z,0
2022-12-27T01:25:42.400Z,0
2022-12-27T01:26:22.881Z,0
2022-12-27T01:31:46.932Z,0
2022-12-27T01:32:27.325Z,0
2022-12-27T01:33:07.812Z,0
2022-12-27T01:33:48.372Z,0
2022-12-27T01:34:28.868Z,0
2022-12-27T01:35:09.382Z,0
2022-12-27T01:35:49.853Z,0
2022-12-27T01:36:30.366Z,0
2022-12-27T01:37:10.834Z,0
2022-12-27T01:37:51.355Z,0
2022-12-27T01:44:36.414Z,0
2022-12-27T01:45:16.962Z,0
2022-12-27T01:45:57.491Z,0
2022-12-27T01:46:37.968Z,0
2022-12-27T01:47:18.466Z,0
2022-12-27T01:47:58.987Z,0
2022-12-27T01:48:39.464Z,0
2022-12-27T01:49:20.027Z,0
2022-12-27T01:50:00.459Z,0
2022-12-27T01:50:40.980Z,0
2022-12-27T01:58:06.499Z,0
2022-12-27T01:58:46.986Z,0
2022-12-27T01:59:27.496Z,0
2022-12-27T02:00:48.579Z,0
2022-12-27T02:01:29.093Z,0
2022-12-27T02:02:09.738Z,0
2022-12-27T02:02:50.081Z,0
2022-12-27T02:03:30.499Z,0
2022-12-27T02:04:11.021Z,0
2022-12-27T02:11:36.561Z,0
2022-12-27T02:12:17.034Z,0
2022-12-27T02:12:57.566Z,0
2022-12-27T02:13:38.068Z,0
2022-12-27T02:14:20.239Z,0
2022-12-27T02:14:59.088Z,0
2022-12-27T02:15:39.605Z,0
2022-12-27T02:16:20.130Z,0
2022-12-27T02:17:00.593Z,0
2022-12-27T02:25:06.632Z,0
2022-12-27T02:25:47.121Z,0
2022-12-27T02:26:27.602Z,0
2022-12-27T02:27:08.090Z,0
2022-12-27T02:27:48.613Z,0
2022-12-27T02:28:29.149Z,0
2022-12-27T02:29:09.663Z,0
2022-12-27T02:29:50.159Z,0
2022-12-27T02:30:30.721Z,0
2022-12-27T02:38:36.787Z,0
2022-12-27T02:39:17.323Z,0
2022-12-27T02:39:57.791Z,0
2022-12-27T02:40:38.305Z,0
2022-12-27T02:41:18.845Z,0
2022-12-27T02:41:59.346Z,0
2022-12-27T02:42:39.831Z,0
2022-12-27T02:43:20.331Z,0
2022-12-27T02:44:00.868Z,0
2022-12-27T02:44:41.390Z,0
2022-12-27T02:52:06.924Z,0
2022-12-27T02:52:47.348Z,0
2022-12-27T02:53:27.880Z,0
2022-12-27T02:54:08.401Z,0
2022-12-27T02:54:48.806Z,0
2022-12-27T02:55:29.274Z,0
2022-12-27T02:56:09.763Z,0
2022-12-27T02:56:50.291Z,0
2022-12-27T02:57:30.809Z,0
2022-12-27T03:03:41.105Z,0
2022-12-27T03:04:17.376Z,0
2022-12-27T03:04:57.790Z,0
2022-12-27T03:05:38.271Z,0
2022-12-27T03:06:18.764Z,0
2022-12-27T03:06:59.271Z,0
2022-12-27T03:07:39.801Z,0
2022-12-27T03:08:20.312Z,0
2022-12-27T03:09:00.802Z,0
2022-12-27T03:09:41.275Z,0
2022-12-27T03:19:14.809Z,0
2022-12-27T03:19:55.292Z,0
2022-12-27T03:20:35.719Z,0
2022-12-27T03:25:59.692Z,0
2022-12-27T03:26:40.209Z,0
2022-12-27T03:27:20.743Z,0
2022-12-27T03:28:01.222Z,0
2022-12-27T03:28:41.738Z,0
2022-12-27T03:29:22.163Z,0
2022-12-27T03:30:02.669Z,0
2022-12-27T03:30:43.287Z,0
2022-12-27T03:31:23.625Z,0
2022-12-27T03:32:04.174Z,0
2022-12-27T03:39:29.547Z,0
2022-12-27T03:40:10.045Z,0
2022-12-27T03:40:50.539Z,0
2022-12-27T03:41:31.042Z,0
2022-12-27T03:42:11.503Z,0
2022-12-27T03:42:52.011Z,0
2022-12-27T03:43:32.472Z,0
2022-12-27T03:44:12.977Z,0
2022-12-27T03:44:53.436Z,0
2022-12-27T03:45:33.952Z,0
2022-12-27T03:52:59.381Z,0
2022-12-27T03:53:39.896Z,0
2022-12-27T03:54:20.393Z,0
2022-12-27T03:55:00.919Z,0
2022-12-27T03:55:41.352Z,0
2022-12-27T03:56:21.825Z,0
2022-12-27T03:57:02.324Z,0
2022-12-27T03:57:42.795Z,0
2022-12-27T03:58:23.295Z,0
2022-12-27T03:59:03.809Z,0
2022-12-27T03:59:44.312Z,0
2022-12-27T04:07:09.738Z,0
2022-12-27T04:07:50.327Z,0
2022-12-27T04:08:30.771Z,0
2022-12-27T04:09:11.270Z,0
2022-12-27T04:09:51.805Z,0
2022-12-27T04:10:32.263Z,0
2022-12-27T04:11:12.772Z,0
2022-12-27T04:11:53.255Z,0
2022-12-27T04:12:33.714Z,0
2022-12-27T04:13:14.215Z,0
2022-12-27T04:19:59.369Z,0
2022-12-27T04:20:39.870Z,0
2022-12-27T04:21:20.366Z,0
2022-12-27T04:22:00.905Z,0
2022-12-27T04:22:41.380Z,0
2022-12-27T04:23:21.823Z,0
2022-12-27T04:24:02.347Z,0
2022-12-27T04:24:42.849Z,0
2022-12-27T04:25:23.363Z,0
2022-12-27T04:26:03.837Z,0
2022-12-27T04:26:44.295Z,0
2022-12-27T04:34:09.769Z,0
2022-12-27T04:34:50.306Z,0
2022-12-27T04:35:30.780Z,0
2022-12-27T04:36:11.273Z,0
2022-12-27T04:36:51.742Z,0
2022-12-27T04:37:32.270Z,0
2022-12-27T04:38:12.762Z,0
2022-12-27T04:38:53.256Z,0
2022-12-27T04:39:33.780Z,0
2022-12-27T04:40:14.277Z,0
2022-12-27T04:47:39.796Z,0
2022-12-27T04:48:20.302Z,0
2022-12-27T04:49:00.767Z,0
2022-12-27T04:49:41.252Z,0
2022-12-27T04:50:21.779Z,0
2022-12-27T04:51:02.259Z,0
2022-12-27T04:51:42.760Z,0
2022-12-27T04:52:23.228Z,0
2022-12-27T04:53:03.733Z,0
2022-12-27T04:53:44.183Z,0
2022-12-27T04:59:39.977Z,0
2022-12-27T05:00:20.352Z,0
2022-12-27T05:01:00.852Z,0
2022-12-27T05:06:24.785Z,0
2022-12-27T05:07:05.284Z,0
2022-12-27T05:07:45.776Z,0
2022-12-27T05:08:26.305Z,0
2022-12-27T05:09:06.783Z,0
2022-12-27T05:09:47.262Z,0
2022-12-27T05:10:27.795Z,0
2022-12-27T05:11:08.308Z,0
2022-12-27T05:11:48.804Z,0
2022-12-27T05:12:29.279Z,0
2022-12-27T05:19:54.759Z,0
2022-12-27T05:20:35.242Z,0
2022-12-27T05:21:15.718Z,0
2022-12-27T05:21:56.211Z,0
2022-12-27T05:22:36.694Z,0
2022-12-27T05:23:17.230Z,0
2022-12-27T05:24:01.895Z,0
2022-12-27T05:24:38.191Z,0
2022-12-27T05:25:18.708Z,0
2022-12-27T05:25:59.261Z,0
2022-12-27T05:33:24.645Z,0
2022-12-27T05:34:05.123Z,0
2022-12-27T05:34:45.632Z,0
2022-12-27T05:35:26.119Z,0
2022-12-27T05:36:06.638Z,0
2022-12-27T05:36:47.148Z,0
2022-12-27T05:37:27.646Z,0
2022-12-27T05:38:08.136Z,0
2022-12-27T05:38:48.640Z,0
2022-12-27T05:39:29.137Z,0
2022-12-27T05:46:54.719Z,0
2022-12-27T05:47:35.168Z,0
2022-12-27T05:48:15.668Z,0
2022-12-27T05:48:56.183Z,0
2022-12-27T05:49:37.651Z,0
2022-12-27T05:50:18.158Z,0
2022-12-27T05:50:58.629Z,0
2022-12-27T05:51:39.154Z,0
2022-12-27T06:31:44.647Z,0
2022-12-27T06:32:25.043Z,0
2022-12-27T06:33:05.523Z,0
2022-12-27T06:37:09.642Z,0
2022-12-27T06:37:50.168Z,0
2022-12-27T06:38:30.688Z,0
2022-12-27T06:39:11.334Z,0
2022-12-27T06:39:51.768Z,0
2022-12-27T06:40:32.265Z,0
2022-12-27T06:41:12.747Z,0
2022-12-27T06:41:53.265Z,0
2022-12-27T06:42:33.783Z,0
2022-12-27T06:43:14.317Z,0
2022-12-27T06:49:20.590Z,0
2022-12-27T06:50:01.106Z,0
2022-12-27T06:50:41.603Z,0
2022-12-27T06:51:22.104Z,0
2022-12-27T06:52:02.603Z,0
2022-12-27T06:52:43.111Z,0
2022-12-27T06:53:23.615Z,0
2022-12-27T06:54:04.148Z,0
2022-12-27T07:01:29.752Z,0
2022-12-27T07:02:10.319Z,0
2022-12-27T07:02:50.839Z,0
2022-12-27T07:03:31.157Z,0
2022-12-27T07:04:11.656Z,0
2022-12-27T07:04:52.179Z,0
2022-12-27T07:05:32.662Z,0
2022-12-27T07:06:13.180Z,0
2022-12-27T07:06:53.691Z,0
2022-12-27T07:11:39.484Z,0
2022-12-27T07:12:20.048Z,0
2022-12-27T07:13:00.514Z,0
2022-12-27T07:13:40.973Z,0
2022-12-27T07:14:21.475Z,0
2022-12-27T07:15:01.960Z,0
2022-12-27T07:15:42.475Z,0
2022-12-27T07:16:23.031Z,0
2022-12-27T07:17:03.484Z,0
2022-12-27T07:17:44.095Z,0
2022-12-27T07:24:29.637Z,0
2022-12-27T07:25:10.149Z,0
2022-12-27T07:25:50.637Z,0
2022-12-27T07:26:31.164Z,0
2022-12-27T07:27:11.723Z,0
2022-12-27T07:27:52.217Z,0
2022-12-27T07:28:32.668Z,0
2022-12-27T07:29:13.215Z,0
2022-12-27T07:29:53.689Z,0
2022-12-27T07:30:34.213Z,0
2022-12-27T07:37:19.562Z,0
2022-12-27T07:38:00.055Z,0
2022-12-27T07:38:40.538Z,0
2022-12-27T07:39:21.099Z,0
2022-12-27T07:40:01.577Z,0
2022-12-27T07:40:42.065Z,0
2022-12-27T07:41:22.538Z,0
2022-12-27T07:42:07.858Z,0
2022-12-27T07:42:43.562Z,0
2022-12-27T07:43:24.057Z,0
2022-12-27T07:49:29.507Z,0
2022-12-27T07:50:09.977Z,0
2022-12-27T07:50:50.505Z,0
2022-12-27T07:51:31.835Z,5
2022-12-27T07:52:12.385Z,5
2022-12-27T07:52:52.907Z,5
2022-12-27T07:53:33.384Z,5
2022-12-27T07:54:13.893Z,5
2022-12-27T07:54:54.388Z,5
2022-12-27T08:00:59.527Z,5
2022-12-27T08:01:40.067Z,5
2022-12-27T08:02:20.699Z,5
2022-12-27T08:03:01.116Z,5
2022-12-27T08:03:41.609Z,5
2022-12-27T08:04:22.086Z,5
2022-12-27T08:05:02.642Z,5
2022-12-27T08:05:43.117Z,5
2022-12-27T08:06:23.629Z,5
2022-12-27T08:13:49.888Z,5
2022-12-27T08:14:30.377Z,5
2022-12-27T08:15:10.938Z,5
2022-12-27T08:15:51.447Z,5
2022-12-27T08:16:32.018Z,5
2022-12-27T08:17:12.478Z,10
2022-12-27T08:17:53.046Z,10
2022-12-27T08:18:33.581Z,10
2022-12-27T08:19:14.073Z,10
2022-12-27T08:26:39.843Z,15
2022-12-27T08:27:20.365Z,15
2022-12-27T08:28:00.848Z,15
2022-12-27T08:28:41.340Z,15
2022-12-27T08:29:21.853Z,15
2022-12-27T08:30:02.476Z,15
2022-12-27T08:30:43.010Z,15
2022-12-27T08:31:23.514Z,15
2022-12-27T08:32:04.005Z,15
2022-12-27T08:37:19.288Z,15
2022-12-27T08:37:59.897Z,15
2022-12-27T08:38:40.407Z,15
2022-12-27T08:39:20.931Z,15
2022-12-27T08:44:44.846Z,20
2022-12-27T08:45:25.372Z,20
2022-12-27T08:46:05.905Z,20
2022-12-27T08:46:46.351Z,20
2022-12-27T08:47:26.846Z,20
2022-12-27T08:48:07.439Z,20
2022-12-27T08:48:47.812Z,20
2022-12-27T08:49:28.317Z,20
2022-12-27T08:50:09.299Z,20
2022-12-27T08:57:34.837Z,20
2022-12-27T08:58:16.493Z,20
2022-12-27T08:58:55.890Z,20
2022-12-27T08:59:36.461Z,20
2022-12-27T09:00:16.940Z,20
2022-12-27T09:00:57.619Z,20
2022-12-27T09:01:38.146Z,20
2022-12-27T09:02:18.657Z,20
2022-12-27T09:02:59.126Z,20
2022-12-27T09:11:52.826Z,20
2022-12-27T09:12:33.352Z,20
2022-12-27T09:13:13.891Z,20
2022-12-27T09:15:15.388Z,15
2022-12-27T09:15:55.882Z,25
2022-12-27T09:16:36.362Z,25
2022-12-27T09:17:16.845Z,25
2022-12-27T09:17:57.332Z,25
2022-12-27T09:18:37.821Z,25
2022-12-27T09:19:18.371Z,25
2022-12-27T09:19:58.829Z,25
2022-12-27T09:20:39.340Z,25
2022-12-27T09:21:19.833Z,25
2022-12-27T09:28:04.996Z,15
2022-12-27T09:28:45.504Z,20
2022-12-27T09:29:26.006Z,20
2022-12-27T09:30:06.497Z,20
2022-12-27T09:30:47.087Z,25
2022-12-27T09:31:27.547Z,25
2022-12-27T09:32:08.061Z,25
2022-12-27T09:32:48.510Z,25
2022-12-27T09:33:28.961Z,25
2022-12-27T09:34:09.551Z,25
2022-12-27T09:34:50.131Z,25
2022-12-27T09:43:07.425Z,25
2022-12-27T09:43:36.702Z,25
2022-12-27T09:44:17.195Z,25
2022-12-27T09:44:57.717Z,25
2022-12-27T09:45:38.221Z,25
2022-12-27T09:46:18.732Z,25
2022-12-27T09:46:59.281Z,25
2022-12-27T09:47:39.731Z,25
2022-12-27T09:55:05.763Z,25
2022-12-27T09:55:45.749Z,25
2022-12-27T09:56:35.614Z,25
2022-12-27T09:57:22.055Z,25
2022-12-27T09:57:47.255Z,25
2022-12-27T09:58:27.784Z,25
2022-12-27T09:59:08.332Z,25
2022-12-27T09:59:48.852Z,25
2022-12-27T10:00:31.057Z,25
2022-12-27T10:01:09.985Z,25
2022-12-27T10:08:35.284Z,25
2022-12-27T10:09:15.801Z,25
2022-12-27T10:09:56.289Z,25
2022-12-27T10:10:36.788Z,25
2022-12-27T10:13:15.212Z,25
2022-12-27T10:13:55.533Z,25
2022-12-27T10:14:36.352Z,20
2022-12-27T10:15:16.889Z,25
2022-12-27T10:19:53.072Z,30
2022-12-27T10:20:32.778Z,30
2022-12-27T10:21:13.312Z,20
2022-12-27T10:26:08.665Z,25
2022-12-27T10:26:49.498Z,25
2022-12-27T10:27:29.932Z,20
2022-12-27T10:28:10.481Z,20
2022-12-27T10:32:04.769Z,15
2022-12-27T10:32:45.318Z,15
2022-12-27T10:33:25.768Z,15
2022-12-27T10:38:49.755Z,20
2022-12-27T10:39:30.238Z,20
2022-12-27T10:40:10.753Z,20
2022-12-27T10:40:51.401Z,20
2022-12-27T10:41:31.969Z,20
2022-12-27T10:42:12.534Z,30
2022-12-27T10:42:53.026Z,25
2022-12-27T10:43:34.250Z,30
2022-12-27T10:50:19.493Z,25
2022-12-27T10:51:00.039Z,25
2022-12-27T10:51:40.551Z,30
2022-12-27T10:52:21.037Z,30
2022-12-27T10:53:01.537Z,30
2022-12-27T10:53:42.072Z,30
2022-12-27T10:54:22.584Z,35
2022-12-27T10:55:03.103Z,35
2022-12-27T10:55:43.656Z,35
2022-12-27T10:56:24.176Z,30
2022-12-27T11:03:09.708Z,30
2022-12-27T11:03:50.224Z,30
2022-12-27T11:04:30.721Z,30
2022-12-27T11:05:11.953Z,25
2022-12-27T11:05:52.435Z,25
2022-12-27T11:06:32.939Z,25
2022-12-27T11:07:13.606Z,25
2022-12-27T11:07:54.168Z,20
2022-12-27T11:13:59.400Z,15
2022-12-27T11:14:40.001Z,15
2022-12-27T11:15:20.496Z,15
2022-12-27T11:16:01.088Z,15
2022-12-27T11:16:41.682Z,15
2022-12-27T11:17:22.093Z,15
2022-12-27T11:18:02.598Z,15
2022-12-27T11:18:43.135Z,15
2022-12-27T11:19:23.597Z,15
2022-12-27T11:20:04.094Z,15
2022-12-27T11:26:09.380Z,15
2022-12-27T11:26:53.630Z,15
2022-12-27T11:27:30.811Z,15
2022-12-27T11:28:11.303Z,15
2022-12-27T11:28:51.822Z,15
2022-12-27T11:29:33.830Z,15
2022-12-27T11:36:19.753Z,15
2022-12-27T11:37:00.279Z,15
2022-12-27T11:37:40.842Z,20
2022-12-27T11:41:09.929Z,20
2022-12-27T11:41:50.485Z,20
2022-12-27T11:42:30.979Z,20
2022-12-27T11:43:11.576Z,20
2022-12-27T11:47:14.684Z,20
2022-12-27T11:47:55.076Z,25
2022-12-27T11:51:34.621Z,15
2022-12-27T11:52:15.904Z,20
2022-12-27T11:52:56.522Z,20
2022-12-27T11:53:36.991Z,20
2022-12-27T12:32:23.876Z,20
2022-12-27T12:33:04.268Z,20
2022-12-27T12:33:44.819Z,15
2022-12-27T12:34:25.329Z,15
2022-12-27T12:38:28.563Z,15
2022-12-27T12:39:09.024Z,15
2022-12-27T12:39:49.568Z,15
2022-12-27T12:40:30.105Z,20
2022-12-27T12:41:10.700Z,20
2022-12-27T12:41:51.140Z,20
2022-12-27T12:42:31.650Z,20
2022-12-27T12:43:12.211Z,15
2022-12-27T12:43:53.063Z,20
2022-12-27T12:49:58.965Z,15
2022-12-27T12:50:39.460Z,15
2022-12-27T12:51:19.989Z,15
2022-12-27T12:52:00.536Z,15
2022-12-27T12:52:41.143Z,15
2022-12-27T12:53:21.637Z,15
2022-12-27T12:54:02.169Z,15
2022-12-27T12:54:42.731Z,15
2022-12-27T12:55:23.185Z,15
2022-12-27T13:00:08.301Z,20
2022-12-27T13:00:48.811Z,20
2022-12-27T13:01:29.402Z,20
2022-12-27T13:02:10.182Z,20
2022-12-27T13:02:50.776Z,20
2022-12-27T13:03:31.190Z,20
2022-12-27T13:04:11.665Z,20
2022-12-27T13:04:52.178Z,20
2022-12-27T13:05:32.663Z,20
2022-12-27T13:06:13.176Z,20
2022-12-27T13:12:18.386Z,20
2022-12-27T13:12:59.035Z,20
2022-12-27T13:13:39.484Z,20
2022-12-27T13:14:20.015Z,20
2022-12-27T13:15:00.463Z,20
2022-12-27T13:15:40.988Z,20
2022-12-27T13:16:21.590Z,20
2022-12-27T13:17:02.030Z,20
2022-12-27T13:17:42.539Z,20
2022-12-27T13:18:28.487Z,20
2022-12-27T13:25:08.396Z,20
2022-12-27T13:25:48.875Z,20
2022-12-27T13:26:29.395Z,20
2022-12-27T13:27:10.240Z,20
2022-12-27T13:27:50.735Z,20
2022-12-27T13:28:31.306Z,20
2022-12-27T13:29:11.872Z,20
2022-12-27T13:29:52.298Z,20
2022-12-27T13:30:33.081Z,20
2022-12-27T13:40:12.733Z,20
2022-12-27T13:40:53.225Z,20
2022-12-27T13:41:33.731Z,20
2022-12-27T13:44:17.409Z,20
2022-12-27T13:44:57.909Z,20
2022-12-27T13:48:27.447Z,15
2022-12-27T13:49:07.933Z,15
2022-12-27T13:49:48.524Z,15
2022-12-27T13:53:51.691Z,15
2022-12-27T13:54:32.165Z,15
2022-12-27T13:55:12.664Z,15
2022-12-27T13:55:53.202Z,15
2022-12-27T13:57:14.539Z,15
2022-12-27T13:57:55.127Z,15
2022-12-27T13:58:35.668Z,15
2022-12-27T14:02:02.780Z,15
2022-12-27T14:02:43.329Z,10
2022-12-27T14:03:23.645Z,10
2022-12-27T14:04:05.226Z,10
2022-12-27T14:04:45.857Z,10
2022-12-27T14:06:15.203Z,10
2022-12-27T14:06:56.335Z,10
2022-12-27T14:13:01.525Z,10
2022-12-27T14:13:42.045Z,5
2022-12-27T14:14:22.549Z,5
2022-12-27T14:15:03.135Z,5
2022-12-27T14:15:43.666Z,5
2022-12-27T14:16:24.169Z,5
2022-12-27T14:17:04.682Z,5
2022-12-27T14:17:45.153Z,5
2022-12-27T14:18:25.688Z,5
2022-12-27T14:19:06.221Z,5
2022-12-27T14:24:31.706Z,5
2022-12-27T14:25:12.201Z,5
2022-12-27T14:26:33.192Z,5
2022-12-27T14:27:13.879Z,0
2022-12-27T14:27:54.570Z,0
2022-12-27T14:29:15.687Z,0
2022-12-27T14:29:56.434Z,0
2022-12-27T14:36:41.771Z,0
2022-12-27T14:37:22.290Z,0
2022-12-27T14:38:02.764Z,0
2022-12-27T14:38:43.338Z,0
2022-12-27T14:39:23.834Z,0
2022-12-27T14:40:04.355Z,0
2022-12-27T14:40:44.895Z,0
2022-12-27T14:41:25.455Z,0
2022-12-27T14:42:06.037Z,0
2022-12-27T14:49:31.649Z,0
2022-12-27T14:50:12.124Z,0
2022-12-27T14:50:52.650Z,0
2022-12-27T14:52:13.696Z,0
2022-12-27T14:52:54.311Z,0
2022-12-27T14:53:34.738Z,0
2022-12-27T14:54:15.199Z,0
2022-12-27T14:54:55.681Z,0
2022-12-27T14:55:36.225Z,0
2022-12-27T15:01:01.440Z,0
2022-12-27T15:01:42.084Z,0
2022-12-27T15:02:22.678Z,0
2022-12-27T15:03:03.136Z,0
2022-12-27T15:03:43.562Z,0
2022-12-27T15:04:23.959Z,0
2022-12-27T15:05:04.459Z,0
2022-12-27T15:05:44.947Z,0
2022-12-27T15:06:25.427Z,0
2022-12-27T15:07:05.937Z,0
2022-12-27T15:14:31.514Z,10
2022-12-27T15:15:12.195Z,10
2022-12-27T15:15:52.627Z,10
2022-12-27T15:16:33.080Z,10
2022-12-27T15:17:13.535Z,10
2022-12-27T15:17:54.037Z,10
2022-12-27T15:19:15.087Z,5
2022-12-27T15:19:55.602Z,5
2022-12-27T15:20:36.206Z,0
2022-12-27T15:28:01.774Z,0
2022-12-27T15:28:42.408Z,0
2022-12-27T15:29:22.940Z,0
2022-12-27T15:30:03.507Z,0
2022-12-27T15:30:43.979Z,0
2022-12-27T15:31:24.489Z,0
2022-12-27T15:32:05.009Z,0
2022-12-27T15:32:49.774Z,0
2022-12-27T15:33:25.957Z,0
2022-12-27T15:40:51.630Z,0
2022-12-27T15:41:32.172Z,0
2022-12-27T15:42:12.706Z,0
2022-12-27T15:42:53.262Z,0
2022-12-27T15:43:33.714Z,0
2022-12-27T15:44:14.236Z,0
2022-12-27T15:44:54.762Z,0
2022-12-27T15:45:35.240Z,0
2022-12-27T15:46:15.895Z,0
2022-12-27T15:46:56.384Z,0
2022-12-27T15:53:41.398Z,0
2022-12-27T15:54:21.925Z,0
2022-12-27T15:55:02.487Z,0
2022-12-27T15:55:42.952Z,0
2022-12-27T15:56:23.420Z,0
2022-12-27T15:57:03.939Z,0
2022-12-27T15:57:44.459Z,0
2022-12-27T15:58:24.967Z,0
2022-12-27T15:59:05.479Z,0
2022-12-27T15:59:46.029Z,0
2022-12-27T16:07:11.562Z,0
2022-12-27T16:07:52.098Z,0
2022-12-27T16:08:32.621Z,0
2022-12-27T16:09:13.130Z,0
2022-12-27T16:09:53.636Z,0
2022-12-27T16:10:34.176Z,0
2022-12-27T16:11:14.654Z,0
2022-12-27T16:11:55.194Z,0
2022-12-27T16:12:35.677Z,0
2022-12-27T16:13:16.191Z,0
2022-12-27T16:20:41.682Z,0
2022-12-27T16:21:22.232Z,0
2022-12-27T16:22:02.745Z,0
2022-12-27T16:22:43.219Z,0
2022-12-27T16:23:23.736Z,0
2022-12-27T16:24:04.257Z,0
2022-12-27T16:24:44.821Z,0
2022-12-27T16:25:30.252Z,0
2022-12-27T16:26:05.864Z,0
2022-12-27T16:26:46.362Z,0
2022-12-27T16:32:51.366Z,0
2022-12-27T16:33:31.863Z,0
2022-12-27T16:34:12.422Z,0
2022-12-27T16:34:52.894Z,0
2022-12-27T16:35:33.481Z,0
2022-12-27T16:36:13.971Z,0
2022-12-27T16:36:54.447Z,0
2022-12-27T16:37:34.963Z,0
2022-12-27T16:38:15.546Z,0
2022-12-27T16:38:56.006Z,0
2022-12-27T16:45:41.853Z,0
2022-12-27T16:46:22.449Z,0
2022-12-27T16:47:02.964Z,0
2022-12-27T16:47:43.470Z,0
2022-12-27T16:48:23.921Z,0
2022-12-27T16:49:04.445Z,0
2022-12-27T16:49:44.924Z,0
2022-12-27T16:50:25.462Z,0
2022-12-27T16:51:05.932Z,0
2022-12-27T16:58:31.590Z,0
2022-12-27T16:59:12.116Z,0
2022-12-27T16:59:52.615Z,0
2022-12-27T17:00:33.166Z,0
2022-12-27T17:01:13.762Z,0
2022-12-27T17:01:54.369Z,0
2022-12-27T17:03:20.462Z,0
2022-12-27T17:03:55.769Z,0
2022-12-27T17:04:36.216Z,0
2022-12-27T17:12:01.839Z,0
2022-12-27T17:12:42.304Z,0
2022-12-27T17:13:22.770Z,0
2022-12-27T17:14:03.295Z,0
2022-12-27T17:14:43.793Z,0
2022-12-27T17:15:24.304Z,0
2022-12-27T17:16:04.884Z,0
2022-12-27T17:16:45.363Z,0
2022-12-27T17:17:25.834Z,0
2022-12-27T17:18:06.343Z,0
2022-12-27T17:24:51.400Z,0
2022-12-27T17:25:31.943Z,0
2022-12-27T17:26:12.421Z,0
2022-12-27T17:26:52.957Z,0
2022-12-27T17:27:33.491Z,0
2022-12-27T17:28:13.981Z,0
2022-12-27T17:28:54.457Z,0
2022-12-27T17:29:34.980Z,0
2022-12-27T17:30:15.463Z,0
2022-12-27T17:30:55.944Z,0
2022-12-27T17:38:21.449Z,0
2022-12-27T17:39:01.976Z,0
2022-12-27T17:39:42.494Z,0
2022-12-27T17:40:22.986Z,0
2022-12-27T17:41:03.593Z,0
2022-12-27T17:41:44.073Z,0
2022-12-27T17:42:24.590Z,0
2022-12-27T17:43:05.090Z,0
2022-12-27T17:43:45.593Z,0
2022-12-27T17:44:26.094Z,0
2022-12-27T17:51:51.702Z,0
2022-12-27T17:52:32.219Z,0
2022-12-27T17:53:14.674Z,0
2022-12-27T18:34:10.173Z,0
2022-12-27T18:34:50.623Z,0
2022-12-27T18:35:31.139Z,0
2022-12-27T18:40:55.206Z,0
2022-12-27T18:41:35.705Z,0
2022-12-27T18:42:16.220Z,0
2022-12-27T18:42:56.722Z,0
2022-12-27T18:43:37.216Z,0
2022-12-27T18:44:21.537Z,0
2022-12-27T18:44:58.160Z,0
2022-12-27T18:45:38.662Z,0
2022-12-27T18:46:19.166Z,0
2022-12-27T18:46:59.662Z,0
2022-12-27T18:53:04.933Z,0
2022-12-27T18:53:45.476Z,0
2022-12-27T18:54:26.012Z,0
2022-12-27T18:55:06.515Z,0
2022-12-27T18:55:47.046Z,0
2022-12-27T18:56:27.483Z,0
2022-12-27T18:57:08.036Z,0
2022-12-27T18:57:48.565Z,0
2022-12-27T18:59:09.582Z,0
2022-12-27T19:05:54.715Z,0
2022-12-27T19:06:35.251Z,0
2022-12-27T19:07:15.747Z,0
2022-12-27T19:07:56.298Z,0
2022-12-27T19:08:36.719Z,0
2022-12-27T19:09:17.210Z,0
2022-12-27T19:09:57.730Z,0
2022-12-27T19:10:38.275Z,0
2022-12-27T19:11:18.768Z,0
2022-12-27T19:11:59.383Z,0
2022-12-27T19:18:44.694Z,0
2022-12-27T19:19:25.173Z,0
2022-12-27T19:20:05.640Z,0
2022-12-27T19:20:46.266Z,0
2022-12-27T19:21:26.881Z,0
2022-12-27T19:22:07.373Z,0
2022-12-27T19:22:47.925Z,0
2022-12-27T19:23:28.439Z,0
2022-12-27T19:24:08.980Z,0
2022-12-27T19:24:49.485Z,0
2022-12-27T19:31:35.253Z,0
2022-12-27T19:32:15.729Z,0
2022-12-27T19:32:56.239Z,0
2022-12-27T19:33:36.748Z,0
2022-12-27T19:34:17.284Z,0
2022-12-27T19:35:38.426Z,0
2022-12-27T19:36:18.936Z,0
2022-12-27T19:36:59.458Z,0
2022-12-27T19:42:36.905Z,0
2022-12-27T19:43:17.175Z,0
2022-12-27T19:43:57.735Z,0
2022-12-27T19:48:41.854Z,0
2022-12-27T19:49:41.146Z,0
2022-12-27T19:50:02.838Z,0
2022-12-27T19:50:43.307Z,0
2022-12-27T19:51:23.815Z,0
2022-12-27T19:52:04.266Z,0
2022-12-27T19:52:44.754Z,0
2022-12-27T19:53:25.247Z,0
2022-12-27T19:54:05.748Z,0
2022-12-27T20:01:31.333Z,0
2022-12-27T20:02:12.144Z,0
2022-12-27T20:02:52.359Z,0
2022-12-27T20:03:32.754Z,0
2022-12-27T20:04:13.248Z,0
2022-12-27T20:04:53.754Z,0
2022-12-27T20:06:12.140Z,0
2022-12-27T20:06:18.862Z,0
2022-12-27T20:06:55.177Z,0
2022-12-27T20:07:35.626Z,0
2022-12-27T20:15:01.107Z,0
2022-12-27T20:15:41.582Z,0
2022-12-27T20:16:22.079Z,0
2022-12-27T20:17:02.568Z,0
2022-12-27T20:17:45.082Z,0
2022-12-27T20:18:23.470Z,0
2022-12-27T20:19:04.010Z,0
2022-12-27T20:19:44.572Z,0
2022-12-27T20:20:25.073Z,0
2022-12-27T20:21:05.560Z,0
2022-12-27T20:21:46.054Z,0
2022-12-27T20:28:31.023Z,0
2022-12-27T20:29:11.515Z,0
2022-12-27T20:29:51.996Z,0
2022-12-27T20:30:32.461Z,0
2022-12-27T20:31:14.836Z,0
2022-12-27T20:31:55.307Z,0
2022-12-27T20:32:35.712Z,0
2022-12-27T20:40:01.084Z,0
2022-12-27T20:40:41.552Z,0
2022-12-27T20:41:22.104Z,0
2022-12-27T20:42:02.550Z,0
2022-12-27T20:42:43.101Z,0
2022-12-27T20:43:23.643Z,0
2022-12-27T20:44:04.086Z,0
2022-12-27T20:44:44.563Z,0
2022-12-27T20:45:25.057Z,0
2022-12-27T20:48:03.816Z,0
2022-12-27T20:48:44.831Z,0
2022-12-27T20:49:25.772Z,0
2022-12-27T20:51:28.758Z,0
2022-12-27T20:52:09.751Z,0
2022-12-27T20:52:50.741Z,0
2022-12-27T20:53:31.760Z,0
2022-12-27T20:54:12.890Z,0
2022-12-27T20:57:37.955Z,0
2022-12-27T20:58:18.931Z,0
2022-12-27T20:58:59.926Z,0
2022-12-27T20:59:40.899Z,0
2022-12-27T21:00:21.923Z,0
2022-12-27T21:02:34.834Z,0
2022-12-27T21:03:15.332Z,0
2022-12-27T21:03:55.644Z,0
2022-12-27T21:09:19.533Z,0
2022-12-27T21:10:00.008Z,0
2022-12-27T21:10:40.477Z,0
2022-12-27T21:11:20.971Z,0
2022-12-27T21:12:01.462Z,0
2022-12-27T21:12:41.971Z,0
2022-12-27T21:13:22.461Z,0
2022-12-27T21:14:02.961Z,0
2022-12-27T21:14:43.439Z,0
2022-12-27T21:15:23.919Z,0
2022-12-27T21:22:49.462Z,0
2022-12-27T21:23:29.927Z,0
2022-12-27T21:24:10.441Z,0
2022-12-27T21:24:50.910Z,0
2022-12-27T21:25:31.404Z,0
2022-12-27T21:26:11.872Z,0
2022-12-27T21:26:56.348Z,0
2022-12-27T21:27:32.863Z,0
2022-12-27T21:28:53.837Z,0
2022-12-27T21:29:34.324Z,0
2022-12-27T21:36:59.749Z,0
2022-12-27T21:37:40.211Z,0
2022-12-27T21:38:20.691Z,0
2022-12-27T21:39:01.202Z,0
2022-12-27T21:39:41.680Z,0
2022-12-27T21:40:22.151Z,0
2022-12-27T21:41:02.667Z,0
2022-12-27T21:41:43.205Z,0
2022-12-27T21:42:23.686Z,0
2022-12-27T21:43:04.173Z,0
2022-12-27T21:50:33.899Z,0
2022-12-27T21:51:10.205Z,0
2022-12-27T21:51:50.738Z,0
2022-12-27T21:52:31.203Z,0
2022-12-27T21:53:11.705Z,0
2022-12-27T21:53:52.171Z,0
2022-12-27T21:54:32.651Z,0
2022-12-27T21:55:13.179Z,0
2022-12-27T21:55:53.732Z,0
2022-12-27T21:56:34.175Z,0
2022-12-27T22:01:09.242Z,0
2022-12-27T22:01:49.849Z,0
2022-12-27T22:02:29.943Z,0
2022-12-27T22:07:53.661Z,0
2022-12-27T22:08:34.126Z,0
2022-12-27T22:09:14.615Z,0
2022-12-27T22:09:55.089Z,0
2022-12-27T22:10:35.594Z,0
2022-12-27T22:11:16.063Z,0
2022-12-27T22:11:56.556Z,0
2022-12-27T22:12:37.037Z,0
2022-12-27T22:13:17.540Z,0
2022-12-27T22:13:58.000Z,0
2022-12-27T22:21:23.368Z,0
2022-12-27T22:22:03.879Z,0
2022-12-27T22:22:44.345Z,0
2022-12-27T22:23:24.813Z,0
2022-12-27T22:24:05.311Z,0